createdAt,value
2022-08-04T00:03:24.055Z,67.10
2022-08-04T00:08:45.970Z,67.48
2022-08-04T00:14:03.375Z,67.80
2022-08-04T00:19:35.741Z,69.33
2022-08-04T00:24:38.914Z,70.17
2022-08-04T00:29:40.909Z,70.31
2022-08-04T00:34:43.945Z,70.01
2022-08-04T00:39:46.919Z,70.74
2022-08-04T00:45:30.391Z,71.57
2022-08-04T00:51:15.867Z,71.28
2022-08-04T00:56:51.738Z,71.38
2022-08-04T01:02:25.260Z,70.79
2022-08-04T01:08:21.409Z,70.53
2022-08-04T01:14:03.776Z,70.56
2022-08-04T01:19:36.330Z,71.36
2022-08-04T01:25:18.885Z,72.37
2022-08-04T01:30:27.087Z,72.61
2022-08-04T01:35:50.474Z,72.15
2022-08-04T01:40:57.401Z,71.96
2022-08-04T01:46:02.752Z,71.97
2022-08-04T01:51:08.211Z,71.43
2022-08-04T01:56:12.525Z,72.08
2022-08-04T02:01:14.477Z,71.61
2022-08-04T02:06:25.607Z,71.53
2022-08-04T02:11:30.028Z,72.18
2022-08-04T02:16:52.683Z,72.54
2022-08-04T02:22:08.702Z,72.93
2022-08-04T02:27:19.736Z,72.90
2022-08-04T02:32:28.639Z,73.50
2022-08-04T02:37:35.337Z,73.49
2022-08-04T02:42:38.134Z,73.68
2022-08-04T02:48:29.356Z,73.58
2022-08-04T02:53:09.843Z,73.71
2022-08-04T02:58:16.631Z,73.81
2022-08-04T03:03:31.097Z,74.50
2022-08-04T03:09:13.442Z,75.15
2022-08-04T03:14:37.235Z,75.21
2022-08-04T03:20:36.989Z,75.08
2022-08-04T03:26:06.477Z,75.45
2022-08-04T03:31:42.249Z,75.47
2022-08-04T03:37:08.805Z,75.46
2022-08-04T03:42:58.705Z,75.69
2022-08-04T03:48:44.514Z,76.01
2022-08-04T03:54:04.618Z,76.18
2022-08-04T03:59:38.752Z,75.25
2022-08-04T04:04:56.635Z,74.68
2022-08-04T04:10:29.164Z,74.65
2022-08-04T04:16:10.808Z,74.58
2022-08-04T04:21:55.929Z,74.68
2022-08-04T04:27:05.556Z,74.61
2022-08-04T04:32:22.285Z,74.97
2022-08-04T04:37:48.648Z,74.56
2022-08-04T04:43:51.043Z,74.56
2022-08-04T04:49:25.100Z,74.82
2022-08-04T04:55:04.323Z,74.23
2022-08-04T05:00:12.812Z,73.94
2022-08-04T05:05:40.849Z,72.68
2022-08-04T05:11:03.617Z,71.85
2022-08-04T05:16:18.729Z,70.79
2022-08-04T05:21:49.674Z,68.63
2022-08-04T05:27:09.618Z,67.11
2022-08-04T05:32:17.697Z,65.61
2022-08-04T05:37:20.439Z,65.20
2022-08-04T05:42:24.415Z,65.43
2022-08-04T05:47:30.670Z,65.19
2022-08-04T05:52:37.176Z,65.07
2022-08-04T05:57:41.890Z,64.71
2022-08-04T06:02:47.319Z,63.86
2022-08-04T06:08:11.982Z,63.64
2022-08-04T06:13:45.495Z,63.47
2022-08-04T06:19:59.107Z,62.80
2022-08-04T06:24:12.824Z,62.71
2022-08-04T06:29:27.791Z,62.73
2022-08-04T06:34:32.640Z,62.35
2022-08-04T06:39:36.505Z,62.23
2022-08-04T06:44:42.551Z,61.92
2022-08-04T06:51:27.048Z,61.26
2022-08-04T06:55:10.878Z,61.12
2022-08-04T07:00:16.657Z,60.58
2022-08-04T07:05:20.460Z,60.11
2022-08-04T07:10:24.528Z,59.29
2022-08-04T07:15:28.014Z,58.36
2022-08-04T07:20:35.551Z,57.82
2022-08-04T07:25:59.450Z,57.24
2022-08-04T07:31:02.943Z,56.69
2022-08-04T07:36:11.668Z,56.19
2022-08-04T07:41:39.937Z,55.43
2022-08-04T07:46:45.875Z,54.95
2022-08-04T07:51:49.853Z,54.19
2022-08-04T07:56:53.180Z,53.36
2022-08-04T08:02:00.075Z,52.65
2022-08-04T08:07:02.051Z,51.81
2022-08-04T08:12:35.114Z,51.22
2022-08-04T08:17:28.767Z,50.72
2022-08-04T08:22:32.249Z,50.10
2022-08-04T08:27:36.586Z,49.69
2022-08-04T08:32:40.614Z,49.09
2022-08-04T08:37:55.839Z,48.88
2022-08-04T08:44:05.969Z,47.97
2022-08-04T08:50:01.125Z,47.47
2022-08-04T08:55:06.566Z,46.20
2022-08-04T09:00:20.426Z,44.88
2022-08-04T09:05:56.611Z,45.06
2022-08-04T09:11:23.571Z,44.12
2022-08-04T09:16:34.993Z,43.68
2022-08-04T09:21:56.308Z,43.92
2022-08-04T09:27:16.510Z,42.54
2022-08-04T09:32:27.114Z,42.19
2022-08-04T09:37:46.651Z,41.97
2022-08-04T09:43:57.209Z,41.10
2022-08-04T09:49:04.886Z,39.15
2022-08-04T09:54:53.045Z,38.79
2022-08-04T10:00:08.425Z,38.94
2022-08-04T10:05:41.245Z,38.84
2022-08-04T10:11:11.181Z,39.06
2022-08-04T10:16:45.963Z,38.85
2022-08-04T10:22:29.905Z,38.83
2022-08-04T10:27:45.695Z,38.56
2022-08-04T10:33:03.754Z,37.55
2022-08-04T10:38:29.901Z,36.42
2022-08-04T10:44:09.169Z,36.58
2022-08-04T10:49:40.146Z,35.44
2022-08-04T10:55:00.549Z,35.17
2022-08-04T11:00:14.337Z,35.26
2022-08-04T11:05:47.828Z,34.60
2022-08-04T11:10:58.581Z,34.05
2022-08-04T11:16:13.362Z,33.67
2022-08-04T11:21:25.881Z,33.85
2022-08-04T11:26:44.669Z,34.10
2022-08-04T11:31:51.922Z,32.85
2022-08-04T11:37:15.554Z,33.06
2022-08-04T11:42:47.541Z,32.58
2022-08-04T11:48:06.826Z,31.93
2022-08-04T11:53:18.933Z,31.59
2022-08-04T11:58:22.176Z,30.81
2022-08-04T12:03:43.585Z,31.10
2022-08-04T12:09:11.381Z,30.87
2022-08-04T12:14:26.776Z,29.98
2022-08-04T12:19:52.160Z,29.65
2022-08-04T12:25:16.328Z,30.05
2022-08-04T12:30:59.158Z,29.79
2022-08-04T12:36:11.372Z,29.22
2022-08-04T12:41:24.091Z,28.93
2022-08-04T12:46:29.443Z,28.86
2022-08-04T12:52:07.936Z,29.84
2022-08-04T12:57:17.888Z,28.52
2022-08-04T13:02:29.965Z,28.48
2022-08-04T13:07:53.268Z,28.32
2022-08-04T13:13:00.660Z,28.27
2022-08-04T13:18:14.653Z,28.89
2022-08-04T13:23:21.842Z,28.65
2022-08-04T13:28:27.749Z,28.40
2022-08-04T13:33:34.170Z,28.43
2022-08-04T13:38:49.153Z,28.45
2022-08-04T13:44:19.696Z,28.26
2022-08-04T13:49:43.135Z,27.83
2022-08-04T13:54:47.339Z,27.33
2022-08-04T13:59:57.178Z,27.15
2022-08-04T14:05:18.810Z,27.08
2022-08-04T14:10:23.260Z,26.80
2022-08-04T14:16:02.009Z,26.41
2022-08-04T14:21:14.328Z,26.47
2022-08-04T14:26:19.139Z,26.43
2022-08-04T14:31:26.634Z,26.52
2022-08-04T14:37:13.339Z,26.41
2022-08-04T14:42:07.096Z,26.20
2022-08-04T14:47:13.295Z,26.14
2022-08-04T14:52:27.501Z,25.57
2022-08-04T14:57:29.520Z,25.50
2022-08-04T15:02:32.045Z,24.87
2022-08-04T15:07:34.495Z,25.07
2022-08-04T15:12:36.602Z,25.40
2022-08-04T15:17:40.196Z,25.59
2022-08-04T15:22:42.091Z,25.89
2022-08-04T15:27:49.681Z,26.02
2022-08-04T15:32:59.084Z,26.45
2022-08-04T15:38:30.891Z,26.45
2022-08-04T15:44:24.303Z,26.75
2022-08-04T15:49:27.017Z,26.71
2022-08-04T15:54:33.020Z,26.74
2022-08-04T16:00:03.330Z,26.86
2022-08-04T16:05:25.579Z,27.02
2022-08-04T16:10:45.686Z,27.43
2022-08-04T16:15:50.422Z,27.23
2022-08-04T16:20:56.364Z,27.20
2022-08-04T16:25:58.479Z,27.35
2022-08-04T16:31:05.382Z,27.34
2022-08-04T16:36:11.850Z,27.61
2022-08-04T16:41:46.626Z,27.70
2022-08-04T16:47:21.464Z,27.58
2022-08-04T16:52:13.719Z,27.99
2022-08-04T16:57:16.001Z,27.83
2022-08-04T17:02:24.869Z,28.30
2022-08-04T17:07:27.034Z,28.75
2022-08-04T17:12:29.000Z,29.12
2022-08-04T17:17:59.131Z,29.43
2022-08-04T17:22:52.782Z,30.13
2022-08-04T17:28:20.141Z,31.08
2022-08-04T17:33:54.888Z,31.46
2022-08-04T17:38:55.998Z,31.82
2022-08-04T17:44:06.465Z,32.28
2022-08-04T17:49:13.276Z,32.51
2022-08-04T17:54:29.816Z,32.99
2022-08-04T17:59:49.622Z,33.83
2022-08-04T18:05:07.947Z,34.12
2022-08-04T18:10:31.066Z,34.54
2022-08-04T18:15:44.269Z,34.94
2022-08-04T18:20:50.145Z,35.47
2022-08-04T18:25:52.682Z,35.67
2022-08-04T18:30:55.275Z,36.06
2022-08-04T18:36:34.099Z,36.31
2022-08-04T18:41:20.231Z,36.76
2022-08-04T18:46:27.178Z,37.38
2022-08-04T18:51:30.906Z,38.20
2022-08-04T18:56:33.935Z,38.69
2022-08-04T19:02:15.894Z,39.28
2022-08-04T19:07:26.614Z,39.81
2022-08-04T19:17:57.342Z,40.62
2022-08-04T19:24:30.338Z,41.32
2022-08-04T19:28:28.108Z,41.91
2022-08-04T19:33:59.353Z,42.87
2022-08-04T19:39:00.145Z,43.41
2022-08-04T19:44:04.979Z,43.56
2022-08-04T19:49:06.873Z,44.31
2022-08-04T19:54:28.587Z,44.62
2022-08-04T19:59:32.405Z,44.88
2022-08-04T20:04:34.482Z,45.86
2022-08-04T20:09:37.521Z,46.63
2022-08-04T20:14:40.171Z,47.69
2022-08-04T20:19:42.263Z,48.40
2022-08-04T20:25:01.059Z,48.76
2022-08-04T20:30:19.001Z,49.11
2022-08-04T20:35:25.580Z,49.28
2022-08-04T20:40:30.345Z,48.37
2022-08-04T20:45:56.924Z,48.46
2022-08-04T20:50:54.457Z,48.58
2022-08-04T20:55:56.436Z,49.67
2022-08-04T21:00:58.559Z,50.22
2022-08-04T21:06:00.628Z,50.46
2022-08-04T21:11:06.822Z,50.72
2022-08-04T21:16:11.061Z,50.72
2022-08-04T21:21:35.373Z,50.84
2022-08-04T21:26:42.620Z,50.83
2022-08-04T21:31:50.428Z,51.42
2022-08-04T21:36:55.273Z,51.06
2022-08-04T21:42:28.677Z,51.49
2022-08-04T21:47:23.821Z,51.10
2022-08-04T21:52:25.998Z,51.48
2022-08-04T21:57:27.948Z,51.45
2022-08-04T22:02:30.067Z,52.53
2022-08-04T22:07:50.571Z,52.26
2022-08-04T22:12:53.061Z,52.58
2022-08-04T22:17:54.970Z,52.86
2022-08-04T22:23:03.351Z,52.50
2022-08-04T22:28:08.349Z,52.82
2022-08-04T22:33:10.259Z,53.24
2022-08-04T22:38:25.586Z,53.21
2022-08-04T22:43:36.931Z,53.29
2022-08-04T22:48:43.733Z,53.15
2022-08-04T22:53:48.620Z,53.29
2022-08-04T22:58:51.467Z,53.48
2022-08-04T23:03:55.814Z,53.17
2022-08-04T23:08:59.311Z,53.94
2022-08-04T23:14:01.669Z,54.17
2022-08-04T23:19:09.840Z,54.40
2022-08-04T23:24:14.034Z,54.26
2022-08-04T23:29:16.008Z,54.61
2022-08-04T23:34:18.674Z,54.58
2022-08-04T23:39:20.724Z,54.69
2022-08-04T23:44:26.777Z,54.08
2022-08-04T23:49:44.963Z,54.83
2022-08-04T23:54:50.326Z,55.21
2022-08-04T23:59:54.391Z,55.56
